sensor_id;sensor_type;location;lat;lon;timestamp;P1;durP1;ratioP1;P2;durP2;ratioP2
19043;SDS011;9654;52.302;8.120;2023-10-19T00:00:52;25.03;;;14.50;;
19043;SDS011;9654;52.302;8.120;2023-10-19T00:03:23;27.13;;;15.53;;
19043;SDS011;9654;52.302;8.120;2023-10-19T00:05:50;33.50;;;16.40;;
19043;SDS011;9654;52.302;8.120;2023-10-19T00:08:16;28.40;;;16.37;;
19043;SDS011;9654;52.302;8.120;2023-10-19T00:10:46;27.60;;;16.27;;
19043;SDS011;9654;52.302;8.120;2023-10-19T00:13:15;25.83;;;15.67;;
19043;SDS011;9654;52.302;8.120;2023-10-19T00:15:44;29.77;;;15.60;;
19043;SDS011;9654;52.302;8.120;2023-10-19T00:18:13;27.20;;;15.90;;
19043;SDS011;9654;52.302;8.120;2023-10-19T00:20:49;26.93;;;15.43;;
19043;SDS011;9654;52.302;8.120;2023-10-19T00:23:17;26.80;;;16.07;;
19043;SDS011;9654;52.302;8.120;2023-10-19T00:25:50;29.43;;;16.20;;
19043;SDS011;9654;52.302;8.120;2023-10-19T00:28:16;29.63;;;16.77;;
19043;SDS011;9654;52.302;8.120;2023-10-19T00:30:43;34.03;;;17.10;;
19043;SDS011;9654;52.302;8.120;2023-10-19T00:33:13;29.40;;;16.57;;
19043;SDS011;9654;52.302;8.120;2023-10-19T00:35:43;27.93;;;15.97;;
19043;SDS011;9654;52.302;8.120;2023-10-19T00:38:17;28.53;;;16.40;;
19043;SDS011;9654;52.302;8.120;2023-10-19T00:40:52;24.67;;;15.47;;
19043;SDS011;9654;52.302;8.120;2023-10-19T00:43:27;26.80;;;16.17;;
19043;SDS011;9654;52.302;8.120;2023-10-19T00:45:57;26.37;;;16.73;;
19043;SDS011;9654;52.302;8.120;2023-10-19T00:48:26;33.43;;;17.97;;
19043;SDS011;9654;52.302;8.120;2023-10-19T00:50:54;28.73;;;15.80;;
19043;SDS011;9654;52.302;8.120;2023-10-19T00:53:33;31.70;;;17.00;;
19043;SDS011;9654;52.302;8.120;2023-10-19T00:56:01;30.20;;;16.90;;
19043;SDS011;9654;52.302;8.120;2023-10-19T00:58:31;32.77;;;17.63;;
19043;SDS011;9654;52.302;8.120;2023-10-19T01:01:01;31.80;;;16.47;;
19043;SDS011;9654;52.302;8.120;2023-10-19T01:03:30;32.63;;;17.97;;
19043;SDS011;9654;52.302;8.120;2023-10-19T01:06:01;29.17;;;17.40;;
19043;SDS011;9654;52.302;8.120;2023-10-19T01:08:36;28.07;;;17.07;;
19043;SDS011;9654;52.302;8.120;2023-10-19T01:11:07;28.57;;;16.97;;
19043;SDS011;9654;52.302;8.120;2023-10-19T01:13:36;29.53;;;16.47;;
19043;SDS011;9654;52.302;8.120;2023-10-19T01:16:03;29.27;;;16.73;;
19043;SDS011;9654;52.302;8.120;2023-10-19T01:18:30;32.47;;;16.73;;
19043;SDS011;9654;52.302;8.120;2023-10-19T01:20:58;34.03;;;18.17;;
19043;SDS011;9654;52.302;8.120;2023-10-19T01:23:29;29.43;;;17.67;;
19043;SDS011;9654;52.302;8.120;2023-10-19T01:25:57;33.17;;;17.33;;
19043;SDS011;9654;52.302;8.120;2023-10-19T01:28:33;34.47;;;18.37;;
19043;SDS011;9654;52.302;8.120;2023-10-19T01:31:13;29.30;;;18.00;;
19043;SDS011;9654;52.302;8.120;2023-10-19T01:33:43;33.60;;;18.63;;
19043;SDS011;9654;52.302;8.120;2023-10-19T01:36:11;36.40;;;19.20;;
19043;SDS011;9654;52.302;8.120;2023-10-19T01:38:39;32.70;;;19.30;;
19043;SDS011;9654;52.302;8.120;2023-10-19T01:41:07;35.03;;;19.60;;
19043;SDS011;9654;52.302;8.120;2023-10-19T01:43:39;34.40;;;19.93;;
19043;SDS011;9654;52.302;8.120;2023-10-19T01:46:07;35.70;;;20.13;;
19043;SDS011;9654;52.302;8.120;2023-10-19T01:48:37;37.17;;;20.53;;
19043;SDS011;9654;52.302;8.120;2023-10-19T01:51:06;35.37;;;20.00;;
19043;SDS011;9654;52.302;8.120;2023-10-19T01:53:32;34.60;;;20.50;;
19043;SDS011;9654;52.302;8.120;2023-10-19T01:56:01;37.30;;;20.40;;
19043;SDS011;9654;52.302;8.120;2023-10-19T01:58:30;42.03;;;21.50;;
19043;SDS011;9654;52.302;8.120;2023-10-19T02:01:01;37.33;;;20.03;;
19043;SDS011;9654;52.302;8.120;2023-10-19T02:03:33;35.13;;;19.70;;
19043;SDS011;9654;52.302;8.120;2023-10-19T02:06:00;36.17;;;20.50;;
19043;SDS011;9654;52.302;8.120;2023-10-19T02:08:35;39.60;;;20.17;;
19043;SDS011;9654;52.302;8.120;2023-10-19T02:11:04;34.30;;;19.60;;
19043;SDS011;9654;52.302;8.120;2023-10-19T02:13:39;35.43;;;19.77;;
19043;SDS011;9654;52.302;8.120;2023-10-19T02:16:05;36.80;;;20.20;;
19043;SDS011;9654;52.302;8.120;2023-10-19T02:18:32;35.03;;;19.83;;
19043;SDS011;9654;52.302;8.120;2023-10-19T02:21:00;42.73;;;20.13;;
19043;SDS011;9654;52.302;8.120;2023-10-19T02:23:31;37.57;;;19.93;;
19043;SDS011;9654;52.302;8.120;2023-10-19T02:25:57;35.63;;;19.83;;
19043;SDS011;9654;52.302;8.120;2023-10-19T02:28:26;36.00;;;20.27;;
19043;SDS011;9654;52.302;8.120;2023-10-19T02:30:56;39.67;;;20.30;;
19043;SDS011;9654;52.302;8.120;2023-10-19T02:33:28;34.70;;;19.73;;
19043;SDS011;9654;52.302;8.120;2023-10-19T02:35:55;36.93;;;19.57;;
19043;SDS011;9654;52.302;8.120;2023-10-19T02:38:22;31.97;;;18.97;;
19043;SDS011;9654;52.302;8.120;2023-10-19T02:40:48;33.87;;;18.90;;
19043;SDS011;9654;52.302;8.120;2023-10-19T02:43:14;29.87;;;17.97;;
19043;SDS011;9654;52.302;8.120;2023-10-19T02:45:42;30.30;;;17.20;;
19043;SDS011;9654;52.302;8.120;2023-10-19T02:48:12;28.87;;;17.10;;
19043;SDS011;9654;52.302;8.120;2023-10-19T02:50:39;30.83;;;18.33;;
19043;SDS011;9654;52.302;8.120;2023-10-19T02:53:05;29.80;;;17.37;;
19043;SDS011;9654;52.302;8.120;2023-10-19T02:55:31;31.27;;;17.77;;
19043;SDS011;9654;52.302;8.120;2023-10-19T02:57:58;28.50;;;16.53;;
19043;SDS011;9654;52.302;8.120;2023-10-19T03:00:24;30.37;;;17.37;;
19043;SDS011;9654;52.302;8.120;2023-10-19T03:02:59;30.10;;;16.90;;
19043;SDS011;9654;52.302;8.120;2023-10-19T03:05:25;28.77;;;16.87;;
19043;SDS011;9654;52.302;8.120;2023-10-19T03:07:52;30.10;;;16.57;;
19043;SDS011;9654;52.302;8.120;2023-10-19T03:10:18;27.30;;;15.53;;
19043;SDS011;9654;52.302;8.120;2023-10-19T03:12:49;27.23;;;15.27;;
19043;SDS011;9654;52.302;8.120;2023-10-19T03:15:15;23.77;;;14.40;;
19043;SDS011;9654;52.302;8.120;2023-10-19T03:17:45;26.87;;;15.43;;
19043;SDS011;9654;52.302;8.120;2023-10-19T03:20:13;25.03;;;14.57;;
19043;SDS011;9654;52.302;8.120;2023-10-19T03:22:41;22.67;;;13.13;;
19043;SDS011;9654;52.302;8.120;2023-10-19T03:25:08;24.40;;;13.90;;
19043;SDS011;9654;52.302;8.120;2023-10-19T03:28:01;24.27;;;13.63;;
19043;SDS011;9654;52.302;8.120;2023-10-19T03:30:33;23.30;;;13.80;;
19043;SDS011;9654;52.302;8.120;2023-10-19T03:33:04;22.77;;;14.37;;
19043;SDS011;9654;52.302;8.120;2023-10-19T03:35:35;25.70;;;14.77;;
19043;SDS011;9654;52.302;8.120;2023-10-19T03:38:03;23.73;;;14.13;;
19043;SDS011;9654;52.302;8.120;2023-10-19T03:40:33;21.60;;;14.10;;
19043;SDS011;9654;52.302;8.120;2023-10-19T03:43:03;27.20;;;14.70;;
19043;SDS011;9654;52.302;8.120;2023-10-19T03:45:41;24.03;;;13.97;;
19043;SDS011;9654;52.302;8.120;2023-10-19T03:48:15;25.23;;;14.63;;
19043;SDS011;9654;52.302;8.120;2023-10-19T03:50:50;26.10;;;15.40;;
19043;SDS011;9654;52.302;8.120;2023-10-19T03:53:18;25.20;;;15.00;;
19043;SDS011;9654;52.302;8.120;2023-10-19T03:55:46;26.20;;;14.80;;
19043;SDS011;9654;52.302;8.120;2023-10-19T03:58:15;23.93;;;14.87;;
19043;SDS011;9654;52.302;8.120;2023-10-19T04:00:42;24.43;;;13.93;;
19043;SDS011;9654;52.302;8.120;2023-10-19T04:03:09;28.30;;;14.47;;
19043;SDS011;9654;52.302;8.120;2023-10-19T04:05:36;23.40;;;14.33;;
19043;SDS011;9654;52.302;8.120;2023-10-19T04:08:07;22.40;;;14.80;;
19043;SDS011;9654;52.302;8.120;2023-10-19T04:10:45;25.33;;;14.07;;
19043;SDS011;9654;52.302;8.120;2023-10-19T04:13:32;25.07;;;14.50;;
19043;SDS011;9654;52.302;8.120;2023-10-19T04:15:59;25.53;;;15.47;;
19043;SDS011;9654;52.302;8.120;2023-10-19T04:18:26;28.80;;;16.63;;
19043;SDS011;9654;52.302;8.120;2023-10-19T04:20:53;25.43;;;14.77;;
19043;SDS011;9654;52.302;8.120;2023-10-19T04:23:24;24.77;;;15.23;;
19043;SDS011;9654;52.302;8.120;2023-10-19T04:25:54;29.20;;;15.93;;
19043;SDS011;9654;52.302;8.120;2023-10-19T04:28:27;26.30;;;15.07;;
19043;SDS011;9654;52.302;8.120;2023-10-19T04:31:03;24.23;;;14.77;;
19043;SDS011;9654;52.302;8.120;2023-10-19T04:33:31;27.20;;;15.73;;
19043;SDS011;9654;52.302;8.120;2023-10-19T04:35:59;25.63;;;14.67;;
19043;SDS011;9654;52.302;8.120;2023-10-19T04:38:29;27.57;;;15.10;;
19043;SDS011;9654;52.302;8.120;2023-10-19T04:41:04;26.43;;;15.23;;
19043;SDS011;9654;52.302;8.120;2023-10-19T04:43:33;22.60;;;14.23;;
19043;SDS011;9654;52.302;8.120;2023-10-19T04:46:03;25.83;;;14.87;;
19043;SDS011;9654;52.302;8.120;2023-10-19T04:48:33;26.60;;;14.87;;
19043;SDS011;9654;52.302;8.120;2023-10-19T04:51:01;24.90;;;14.37;;
19043;SDS011;9654;52.302;8.120;2023-10-19T04:53:31;26.87;;;14.63;;
19043;SDS011;9654;52.302;8.120;2023-10-19T04:55:58;24.33;;;13.97;;
19043;SDS011;9654;52.302;8.120;2023-10-19T04:58:25;24.07;;;14.83;;
19043;SDS011;9654;52.302;8.120;2023-10-19T05:00:53;24.80;;;15.07;;
19043;SDS011;9654;52.302;8.120;2023-10-19T05:03:20;21.63;;;13.23;;
19043;SDS011;9654;52.302;8.120;2023-10-19T05:05:47;24.37;;;14.10;;
19043;SDS011;9654;52.302;8.120;2023-10-19T05:08:13;25.10;;;14.00;;
19043;SDS011;9654;52.302;8.120;2023-10-19T05:10:41;21.80;;;14.27;;
19043;SDS011;9654;52.302;8.120;2023-10-19T05:13:08;25.97;;;14.77;;
19043;SDS011;9654;52.302;8.120;2023-10-19T05:15:35;23.97;;;14.33;;
19043;SDS011;9654;52.302;8.120;2023-10-19T05:18:03;23.93;;;14.20;;
19043;SDS011;9654;52.302;8.120;2023-10-19T05:20:31;23.93;;;14.70;;
19043;SDS011;9654;52.302;8.120;2023-10-19T05:22:58;26.13;;;14.73;;
19043;SDS011;9654;52.302;8.120;2023-10-19T05:25:25;24.37;;;15.03;;
19043;SDS011;9654;52.302;8.120;2023-10-19T05:27:53;25.20;;;14.17;;
19043;SDS011;9654;52.302;8.120;2023-10-19T05:30:20;19.87;;;12.87;;
19043;SDS011;9654;52.302;8.120;2023-10-19T05:32:48;24.20;;;14.60;;
19043;SDS011;9654;52.302;8.120;2023-10-19T05:35:15;27.83;;;15.63;;
19043;SDS011;9654;52.302;8.120;2023-10-19T05:37:47;26.87;;;15.73;;
19043;SDS011;9654;52.302;8.120;2023-10-19T05:40:15;29.00;;;15.50;;
19043;SDS011;9654;52.302;8.120;2023-10-19T05:42:43;25.87;;;15.57;;
19043;SDS011;9654;52.302;8.120;2023-10-19T05:45:12;25.27;;;15.27;;
19043;SDS011;9654;52.302;8.120;2023-10-19T05:47:41;25.53;;;15.33;;
19043;SDS011;9654;52.302;8.120;2023-10-19T05:50:08;27.13;;;15.50;;
19043;SDS011;9654;52.302;8.120;2023-10-19T05:52:39;21.67;;;13.90;;
19043;SDS011;9654;52.302;8.120;2023-10-19T05:55:07;24.60;;;15.40;;
19043;SDS011;9654;52.302;8.120;2023-10-19T05:57:34;28.57;;;14.97;;
19043;SDS011;9654;52.302;8.120;2023-10-19T06:00:05;27.17;;;15.73;;
19043;SDS011;9654;52.302;8.120;2023-10-19T06:02:34;23.27;;;15.30;;
19043;SDS011;9654;52.302;8.120;2023-10-19T06:05:01;26.20;;;16.03;;
19043;SDS011;9654;52.302;8.120;2023-10-19T06:07:30;23.67;;;14.53;;
19043;SDS011;9654;52.302;8.120;2023-10-19T06:09:56;21.67;;;14.40;;
19043;SDS011;9654;52.302;8.120;2023-10-19T06:12:25;23.97;;;14.60;;
19043;SDS011;9654;52.302;8.120;2023-10-19T06:14:53;24.17;;;14.10;;
19043;SDS011;9654;52.302;8.120;2023-10-19T06:17:20;24.83;;;14.23;;
19043;SDS011;9654;52.302;8.120;2023-10-19T06:19:49;25.03;;;15.30;;
19043;SDS011;9654;52.302;8.120;2023-10-19T06:22:16;22.73;;;14.27;;
19043;SDS011;9654;52.302;8.120;2023-10-19T06:24:43;23.20;;;13.63;;
19043;SDS011;9654;52.302;8.120;2023-10-19T06:27:09;24.23;;;14.63;;
19043;SDS011;9654;52.302;8.120;2023-10-19T06:29:36;23.80;;;14.93;;
19043;SDS011;9654;52.302;8.120;2023-10-19T06:32:03;21.50;;;13.87;;
19043;SDS011;9654;52.302;8.120;2023-10-19T06:34:30;21.63;;;14.50;;
19043;SDS011;9654;52.302;8.120;2023-10-19T06:36:58;21.70;;;14.50;;
19043;SDS011;9654;52.302;8.120;2023-10-19T06:39:26;22.17;;;14.23;;
19043;SDS011;9654;52.302;8.120;2023-10-19T06:41:52;28.00;;;16.77;;
19043;SDS011;9654;52.302;8.120;2023-10-19T06:44:19;23.30;;;15.03;;
19043;SDS011;9654;52.302;8.120;2023-10-19T06:46:47;21.37;;;14.53;;
19043;SDS011;9654;52.302;8.120;2023-10-19T06:49:14;26.50;;;16.27;;
19043;SDS011;9654;52.302;8.120;2023-10-19T06:51:42;25.80;;;15.20;;
19043;SDS011;9654;52.302;8.120;2023-10-19T06:54:11;27.10;;;16.07;;
19043;SDS011;9654;52.302;8.120;2023-10-19T06:56:38;24.80;;;15.43;;
19043;SDS011;9654;52.302;8.120;2023-10-19T06:59:06;24.93;;;15.17;;
19043;SDS011;9654;52.302;8.120;2023-10-19T07:01:33;26.27;;;15.93;;
19043;SDS011;9654;52.302;8.120;2023-10-19T07:04:01;25.83;;;15.27;;
19043;SDS011;9654;52.302;8.120;2023-10-19T07:06:28;25.77;;;15.80;;
19043;SDS011;9654;52.302;8.120;2023-10-19T07:08:55;28.43;;;16.43;;
19043;SDS011;9654;52.302;8.120;2023-10-19T07:11:24;26.67;;;16.37;;
19043;SDS011;9654;52.302;8.120;2023-10-19T07:13:51;28.53;;;16.77;;
19043;SDS011;9654;52.302;8.120;2023-10-19T07:16:18;27.43;;;16.90;;
19043;SDS011;9654;52.302;8.120;2023-10-19T07:18:45;26.47;;;16.67;;
19043;SDS011;9654;52.302;8.120;2023-10-19T07:21:12;29.03;;;17.00;;
19043;SDS011;9654;52.302;8.120;2023-10-19T07:23:39;24.53;;;15.40;;
19043;SDS011;9654;52.302;8.120;2023-10-19T07:26:06;26.87;;;15.83;;
19043;SDS011;9654;52.302;8.120;2023-10-19T07:28:35;24.63;;;15.30;;
19043;SDS011;9654;52.302;8.120;2023-10-19T07:31:02;28.13;;;17.23;;
19043;SDS011;9654;52.302;8.120;2023-10-19T07:33:29;28.97;;;15.77;;
19043;SDS011;9654;52.302;8.120;2023-10-19T07:35:56;24.43;;;14.63;;
19043;SDS011;9654;52.302;8.120;2023-10-19T07:38:25;26.37;;;16.00;;
19043;SDS011;9654;52.302;8.120;2023-10-19T07:40:53;26.30;;;16.00;;
19043;SDS011;9654;52.302;8.120;2023-10-19T07:43:20;27.33;;;16.47;;
19043;SDS011;9654;52.302;8.120;2023-10-19T07:45:49;24.23;;;15.60;;
19043;SDS011;9654;52.302;8.120;2023-10-19T07:48:17;26.80;;;16.27;;
19043;SDS011;9654;52.302;8.120;2023-10-19T07:50:44;28.00;;;16.73;;
19043;SDS011;9654;52.302;8.120;2023-10-19T07:53:11;30.03;;;16.20;;
19043;SDS011;9654;52.302;8.120;2023-10-19T07:55:38;22.93;;;15.43;;
19043;SDS011;9654;52.302;8.120;2023-10-19T07:58:04;25.60;;;16.07;;
19043;SDS011;9654;52.302;8.120;2023-10-19T08:00:32;26.03;;;15.83;;
19043;SDS011;9654;52.302;8.120;2023-10-19T08:03:01;25.93;;;16.03;;
19043;SDS011;9654;52.302;8.120;2023-10-19T08:05:29;26.70;;;15.77;;
19043;SDS011;9654;52.302;8.120;2023-10-19T08:07:56;26.77;;;15.87;;
19043;SDS011;9654;52.302;8.120;2023-10-19T08:10:24;27.03;;;16.67;;
19043;SDS011;9654;52.302;8.120;2023-10-19T08:12:52;26.17;;;16.53;;
19043;SDS011;9654;52.302;8.120;2023-10-19T08:15:20;24.93;;;15.83;;
19043;SDS011;9654;52.302;8.120;2023-10-19T08:17:47;28.23;;;16.43;;
19043;SDS011;9654;52.302;8.120;2023-10-19T08:20:17;24.50;;;16.10;;
19043;SDS011;9654;52.302;8.120;2023-10-19T08:22:48;25.70;;;15.87;;
19043;SDS011;9654;52.302;8.120;2023-10-19T08:25:15;27.57;;;16.53;;
19043;SDS011;9654;52.302;8.120;2023-10-19T08:27:41;29.10;;;17.23;;
19043;SDS011;9654;52.302;8.120;2023-10-19T08:30:10;25.47;;;15.60;;
19043;SDS011;9654;52.302;8.120;2023-10-19T08:32:38;25.27;;;16.67;;
19043;SDS011;9654;52.302;8.120;2023-10-19T08:35:07;27.60;;;16.73;;
19043;SDS011;9654;52.302;8.120;2023-10-19T08:37:37;27.40;;;15.97;;
19043;SDS011;9654;52.302;8.120;2023-10-19T08:40:05;24.63;;;15.83;;
19043;SDS011;9654;52.302;8.120;2023-10-19T08:42:33;27.40;;;16.93;;
19043;SDS011;9654;52.302;8.120;2023-10-19T08:45:01;26.30;;;16.53;;
19043;SDS011;9654;52.302;8.120;2023-10-19T08:47:33;27.83;;;16.53;;
19043;SDS011;9654;52.302;8.120;2023-10-19T08:50:02;27.10;;;16.03;;
19043;SDS011;9654;52.302;8.120;2023-10-19T08:52:30;23.43;;;15.37;;
19043;SDS011;9654;52.302;8.120;2023-10-19T08:54:59;26.50;;;16.67;;
19043;SDS011;9654;52.302;8.120;2023-10-19T08:57:26;24.30;;;15.10;;
19043;SDS011;9654;52.302;8.120;2023-10-19T08:59:53;23.40;;;15.43;;
19043;SDS011;9654;52.302;8.120;2023-10-19T09:02:23;25.00;;;15.80;;
19043;SDS011;9654;52.302;8.120;2023-10-19T09:04:50;24.80;;;15.60;;
19043;SDS011;9654;52.302;8.120;2023-10-19T09:07:17;28.50;;;16.53;;
19043;SDS011;9654;52.302;8.120;2023-10-19T09:09:44;22.83;;;15.03;;
19043;SDS011;9654;52.302;8.120;2023-10-19T09:12:14;24.10;;;14.73;;
19043;SDS011;9654;52.302;8.120;2023-10-19T09:14:41;24.30;;;15.73;;
19043;SDS011;9654;52.302;8.120;2023-10-19T09:17:11;23.40;;;15.60;;
19043;SDS011;9654;52.302;8.120;2023-10-19T09:19:38;21.50;;;15.40;;
19043;SDS011;9654;52.302;8.120;2023-10-19T09:22:07;34.63;;;24.17;;
19043;SDS011;9654;52.302;8.120;2023-10-19T09:24:41;61.73;;;40.07;;
19043;SDS011;9654;52.302;8.120;2023-10-19T09:27:10;23.60;;;16.27;;
19043;SDS011;9654;52.302;8.120;2023-10-19T09:29:38;22.87;;;15.73;;
19043;SDS011;9654;52.302;8.120;2023-10-19T09:32:06;27.37;;;17.50;;
19043;SDS011;9654;52.302;8.120;2023-10-19T09:34:34;26.97;;;16.93;;
19043;SDS011;9654;52.302;8.120;2023-10-19T09:37:02;17.10;;;13.53;;
19043;SDS011;9654;52.302;8.120;2023-10-19T09:39:30;18.03;;;13.43;;
19043;SDS011;9654;52.302;8.120;2023-10-19T09:42:00;18.73;;;13.50;;
19043;SDS011;9654;52.302;8.120;2023-10-19T09:44:31;20.60;;;16.70;;
19043;SDS011;9654;52.302;8.120;2023-10-19T09:47:07;18.30;;;13.33;;
19043;SDS011;9654;52.302;8.120;2023-10-19T09:49:37;38.63;;;14.33;;
19043;SDS011;9654;52.302;8.120;2023-10-19T09:52:05;22.17;;;13.50;;
19043;SDS011;9654;52.302;8.120;2023-10-19T09:54:34;17.30;;;12.07;;
19043;SDS011;9654;52.302;8.120;2023-10-19T09:57:13;19.60;;;12.63;;
19043;SDS011;9654;52.302;8.120;2023-10-19T09:59:45;16.90;;;12.23;;
19043;SDS011;9654;52.302;8.120;2023-10-19T10:02:17;19.80;;;13.60;;
19043;SDS011;9654;52.302;8.120;2023-10-19T10:04:47;18.00;;;13.83;;
19043;SDS011;9654;52.302;8.120;2023-10-19T10:07:14;18.20;;;12.77;;
19043;SDS011;9654;52.302;8.120;2023-10-19T10:09:42;18.27;;;12.77;;
19043;SDS011;9654;52.302;8.120;2023-10-19T10:12:16;16.63;;;12.53;;
19043;SDS011;9654;52.302;8.120;2023-10-19T10:15:00;19.67;;;14.00;;
19043;SDS011;9654;52.302;8.120;2023-10-19T10:17:34;17.70;;;13.27;;
19043;SDS011;9654;52.302;8.120;2023-10-19T10:23:18;17.17;;;12.73;;
19043;SDS011;9654;52.302;8.120;2023-10-19T10:25:49;18.67;;;11.83;;
19043;SDS011;9654;52.302;8.120;2023-10-19T10:28:18;17.20;;;12.23;;
19043;SDS011;9654;52.302;8.120;2023-10-19T10:31:10;17.27;;;12.73;;
19043;SDS011;9654;52.302;8.120;2023-10-19T10:33:47;20.07;;;12.70;;
19043;SDS011;9654;52.302;8.120;2023-10-19T10:36:16;16.63;;;12.67;;
19043;SDS011;9654;52.302;8.120;2023-10-19T10:38:44;17.97;;;12.77;;
19043;SDS011;9654;52.302;8.120;2023-10-19T10:41:11;17.97;;;12.87;;
19043;SDS011;9654;52.302;8.120;2023-10-19T10:43:48;17.00;;;12.93;;
19043;SDS011;9654;52.302;8.120;2023-10-19T10:46:19;17.87;;;12.13;;
19043;SDS011;9654;52.302;8.120;2023-10-19T10:48:49;17.77;;;12.07;;
19043;SDS011;9654;52.302;8.120;2023-10-19T10:51:17;16.67;;;11.90;;
19043;SDS011;9654;52.302;8.120;2023-10-19T10:53:48;15.20;;;11.93;;
19043;SDS011;9654;52.302;8.120;2023-10-19T10:56:16;18.53;;;12.80;;
19043;SDS011;9654;52.302;8.120;2023-10-19T10:58:44;17.53;;;13.60;;
19043;SDS011;9654;52.302;8.120;2023-10-19T11:01:11;18.13;;;12.93;;
19043;SDS011;9654;52.302;8.120;2023-10-19T11:03:38;18.10;;;12.60;;
19043;SDS011;9654;52.302;8.120;2023-10-19T11:06:06;17.27;;;13.07;;
19043;SDS011;9654;52.302;8.120;2023-10-19T11:08:34;14.53;;;11.47;;
19043;SDS011;9654;52.302;8.120;2023-10-19T11:11:02;16.83;;;11.80;;
19043;SDS011;9654;52.302;8.120;2023-10-19T11:13:30;14.97;;;11.33;;
19043;SDS011;9654;52.302;8.120;2023-10-19T11:16:00;15.03;;;11.70;;
19043;SDS011;9654;52.302;8.120;2023-10-19T11:18:29;20.57;;;13.90;;
19043;SDS011;9654;52.302;8.120;2023-10-19T11:20:57;34.70;;;21.03;;
19043;SDS011;9654;52.302;8.120;2023-10-19T11:23:37;24.50;;;16.50;;
19043;SDS011;9654;52.302;8.120;2023-10-19T11:26:05;19.87;;;13.70;;
19043;SDS011;9654;52.302;8.120;2023-10-19T11:28:33;13.50;;;10.40;;
19043;SDS011;9654;52.302;8.120;2023-10-19T11:31:10;16.53;;;11.57;;
19043;SDS011;9654;52.302;8.120;2023-10-19T11:33:41;18.70;;;11.67;;
19043;SDS011;9654;52.302;8.120;2023-10-19T11:36:08;17.90;;;10.83;;
19043;SDS011;9654;52.302;8.120;2023-10-19T11:38:38;16.83;;;11.67;;
19043;SDS011;9654;52.302;8.120;2023-10-19T11:41:06;15.77;;;12.23;;
19043;SDS011;9654;52.302;8.120;2023-10-19T11:43:33;17.50;;;12.47;;
19043;SDS011;9654;52.302;8.120;2023-10-19T11:46:00;16.90;;;10.90;;
19043;SDS011;9654;52.302;8.120;2023-10-19T11:48:29;13.50;;;10.90;;
19043;SDS011;9654;52.302;8.120;2023-10-19T11:50:56;18.33;;;12.00;;
19043;SDS011;9654;52.302;8.120;2023-10-19T11:53:23;14.17;;;11.10;;
19043;SDS011;9654;52.302;8.120;2023-10-19T11:55:51;15.33;;;10.93;;
19043;SDS011;9654;52.302;8.120;2023-10-19T11:58:18;20.70;;;11.73;;
19043;SDS011;9654;52.302;8.120;2023-10-19T12:00:45;15.20;;;10.97;;
19043;SDS011;9654;52.302;8.120;2023-10-19T12:03:12;16.23;;;11.97;;
19043;SDS011;9654;52.302;8.120;2023-10-19T12:05:39;15.43;;;11.07;;
19043;SDS011;9654;52.302;8.120;2023-10-19T12:08:07;19.30;;;12.10;;
19043;SDS011;9654;52.302;8.120;2023-10-19T12:10:34;16.10;;;11.27;;
19043;SDS011;9654;52.302;8.120;2023-10-19T12:13:04;18.03;;;11.87;;
19043;SDS011;9654;52.302;8.120;2023-10-19T12:15:33;14.97;;;12.07;;
19043;SDS011;9654;52.302;8.120;2023-10-19T12:18:00;17.87;;;12.73;;
19043;SDS011;9654;52.302;8.120;2023-10-19T12:20:28;16.80;;;12.63;;
19043;SDS011;9654;52.302;8.120;2023-10-19T12:22:56;17.13;;;12.97;;
19043;SDS011;9654;52.302;8.120;2023-10-19T12:25:24;19.10;;;12.33;;
19043;SDS011;9654;52.302;8.120;2023-10-19T12:27:54;19.17;;;13.00;;
19043;SDS011;9654;52.302;8.120;2023-10-19T12:30:24;18.13;;;13.30;;
19043;SDS011;9654;52.302;8.120;2023-10-19T12:32:56;19.03;;;13.27;;
19043;SDS011;9654;52.302;8.120;2023-10-19T12:35:26;16.73;;;12.33;;
19043;SDS011;9654;52.302;8.120;2023-10-19T12:38:07;16.20;;;12.13;;
19043;SDS011;9654;52.302;8.120;2023-10-19T12:40:40;17.60;;;11.80;;
19043;SDS011;9654;52.302;8.120;2023-10-19T12:43:08;15.97;;;12.10;;
19043;SDS011;9654;52.302;8.120;2023-10-19T12:45:37;15.50;;;11.60;;
19043;SDS011;9654;52.302;8.120;2023-10-19T12:48:04;16.77;;;12.07;;
19043;SDS011;9654;52.302;8.120;2023-10-19T12:50:32;13.73;;;11.60;;
19043;SDS011;9654;52.302;8.120;2023-10-19T12:53:01;16.33;;;11.30;;
19043;SDS011;9654;52.302;8.120;2023-10-19T12:55:28;15.83;;;11.90;;
19043;SDS011;9654;52.302;8.120;2023-10-19T12:57:56;15.67;;;11.00;;
19043;SDS011;9654;52.302;8.120;2023-10-19T13:00:24;13.00;;;10.93;;
19043;SDS011;9654;52.302;8.120;2023-10-19T13:02:55;16.47;;;11.73;;
19043;SDS011;9654;52.302;8.120;2023-10-19T13:05:26;14.97;;;11.60;;
19043;SDS011;9654;52.302;8.120;2023-10-19T13:07:53;17.73;;;12.90;;
19043;SDS011;9654;52.302;8.120;2023-10-19T13:10:23;18.00;;;12.00;;
19043;SDS011;9654;52.302;8.120;2023-10-19T13:13:00;17.67;;;12.07;;
19043;SDS011;9654;52.302;8.120;2023-10-19T13:15:28;19.10;;;13.93;;
19043;SDS011;9654;52.302;8.120;2023-10-19T13:17:57;24.37;;;13.23;;
19043;SDS011;9654;52.302;8.120;2023-10-19T13:20:25;19.63;;;13.50;;
19043;SDS011;9654;52.302;8.120;2023-10-19T13:22:52;18.30;;;13.60;;
19043;SDS011;9654;52.302;8.120;2023-10-19T13:25:19;18.30;;;12.90;;
19043;SDS011;9654;52.302;8.120;2023-10-19T13:28:03;17.77;;;13.20;;
19043;SDS011;9654;52.302;8.120;2023-10-19T13:30:35;21.70;;;13.07;;
19043;SDS011;9654;52.302;8.120;2023-10-19T13:33:04;20.80;;;13.90;;
19043;SDS011;9654;52.302;8.120;2023-10-19T13:35:32;20.73;;;13.63;;
19043;SDS011;9654;52.302;8.120;2023-10-19T13:37:59;20.73;;;14.07;;
19043;SDS011;9654;52.302;8.120;2023-10-19T13:40:26;21.73;;;14.43;;
19043;SDS011;9654;52.302;8.120;2023-10-19T13:42:55;24.63;;;15.73;;
19043;SDS011;9654;52.302;8.120;2023-10-19T13:45:22;24.87;;;15.13;;
19043;SDS011;9654;52.302;8.120;2023-10-19T13:47:49;23.50;;;15.23;;
19043;SDS011;9654;52.302;8.120;2023-10-19T13:50:21;22.10;;;14.57;;
19043;SDS011;9654;52.302;8.120;2023-10-19T13:52:48;22.80;;;15.33;;
19043;SDS011;9654;52.302;8.120;2023-10-19T13:55:15;24.83;;;15.40;;
19043;SDS011;9654;52.302;8.120;2023-10-19T13:57:43;21.50;;;14.27;;
19043;SDS011;9654;52.302;8.120;2023-10-19T14:00:11;24.97;;;16.23;;
19043;SDS011;9654;52.302;8.120;2023-10-19T14:02:44;23.77;;;15.67;;
19043;SDS011;9654;52.302;8.120;2023-10-19T14:05:11;25.23;;;16.33;;
19043;SDS011;9654;52.302;8.120;2023-10-19T14:07:39;22.93;;;15.90;;
19043;SDS011;9654;52.302;8.120;2023-10-19T14:10:07;22.47;;;15.33;;
19043;SDS011;9654;52.302;8.120;2023-10-19T14:12:37;22.37;;;15.47;;
19043;SDS011;9654;52.302;8.120;2023-10-19T14:15:07;23.87;;;16.00;;
19043;SDS011;9654;52.302;8.120;2023-10-19T14:17:36;24.00;;;16.87;;
19043;SDS011;9654;52.302;8.120;2023-10-19T14:20:03;24.97;;;17.03;;
19043;SDS011;9654;52.302;8.120;2023-10-19T14:22:31;22.43;;;15.20;;
19043;SDS011;9654;52.302;8.120;2023-10-19T14:25:02;25.10;;;15.93;;
19043;SDS011;9654;52.302;8.120;2023-10-19T14:27:30;30.20;;;17.43;;
19043;SDS011;9654;52.302;8.120;2023-10-19T14:29:56;25.67;;;16.90;;
19043;SDS011;9654;52.302;8.120;2023-10-19T14:32:23;27.50;;;17.90;;
19043;SDS011;9654;52.302;8.120;2023-10-19T14:34:51;25.90;;;16.80;;
19043;SDS011;9654;52.302;8.120;2023-10-19T14:37:18;28.97;;;17.60;;
19043;SDS011;9654;52.302;8.120;2023-10-19T14:39:45;26.90;;;17.83;;
19043;SDS011;9654;52.302;8.120;2023-10-19T14:42:13;24.90;;;17.67;;
19043;SDS011;9654;52.302;8.120;2023-10-19T14:44:40;26.73;;;18.20;;
19043;SDS011;9654;52.302;8.120;2023-10-19T14:47:07;26.17;;;17.97;;